Time;durP1;ratioP1;P1;durP2;ratioP2;P2;SDS_P1;SDS_P2;PMS_P1;PMS_P2;Temp;Humidity;BMP_temperature;BMP_pressure;BME280_temperature;BME280_humidity;BME280_pressure;Samples;Min_cycle;Max_cycle;Signal;HPM_P1;HPM_P2
2021/03/02 00:01:01;;;;;;;2.97;1.90;;;20.20;48.90;;;;;;6198874;28;20402;-70
2021/03/02 00:04:04;;;;;;;2.08;1.63;;;20.20;48.90;;;;;;6200840;28;20034;-70
2021/03/02 00:07:05;;;;;;;3.17;1.80;;;20.20;48.80;;;;;;6198100;28;20029;-70
2021/03/02 00:10:10;;;;;;;3.83;1.63;;;20.20;48.90;;;;;;6197128;28;20026;-70
2021/03/02 00:13:11;;;;;;;1.98;1.20;;;20.20;48.90;;;;;;6202953;28;20026;-70
2021/03/02 00:16:14;;;;;;;2.25;1.65;;;20.10;48.80;;;;;;6196760;28;20046;-70
2021/03/02 00:19:18;;;;;;;2.00;1.52;;;20.20;48.90;;;;;;6203624;28;20126;-70
2021/03/02 00:22:24;;;;;;;3.57;1.50;;;20.20;48.90;;;;;;6201985;28;20061;-70
2021/03/02 00:25:40;;;;;;;3.13;1.92;;;20.10;48.80;;;;;;6198638;28;20034;-70
2021/03/02 00:28:42;;;;;;;3.42;1.70;;;20.10;48.70;;;;;;6204129;28;20109;-70
2021/03/02 00:31:42;;;;;;;3.72;1.65;;;20.10;48.80;;;;;;6205068;28;20435;-70
2021/03/02 00:34:43;;;;;;;3.00;1.63;;;20.10;48.80;;;;;;6202014;28;20061;-70
2021/03/02 00:37:47;;;;;;;3.17;1.40;;;20.20;48.90;;;;;;6207096;28;20112;-70
2021/03/02 00:40:48;;;;;;;2.05;1.42;;;20.20;48.90;;;;;;6198797;28;20380;-70
2021/03/02 00:43:52;;;;;;;2.42;1.85;;;20.20;48.90;;;;;;6191854;28;20042;-70
2021/03/02 00:46:53;;;;;;;1.88;1.38;;;20.10;48.80;;;;;;6201321;28;20113;-70
2021/03/02 00:49:53;;;;;;;2.38;1.70;;;20.10;48.80;;;;;;6196168;28;20036;-70
2021/03/02 00:52:54;;;;;;;2.15;1.40;;;20.10;48.70;;;;;;6200189;28;20081;-70
2021/03/02 00:55:55;;;;;;;1.52;1.30;;;20.10;48.70;;;;;;6197448;28;20037;-70
2021/03/02 00:58:55;;;;;;;1.73;1.35;;;20.10;48.80;;;;;;6196668;28;20026;-70
2021/03/02 01:01:56;;;;;;;2.15;1.45;;;20.10;48.80;;;;;;6194351;28;20080;-70
2021/03/02 01:04:57;;;;;;;1.48;1.35;;;20.10;48.80;;;;;;6195014;28;20046;-70
2021/03/02 01:07:57;;;;;;;1.90;1.30;;;20.10;48.70;;;;;;6193290;28;20110;-70
2021/03/02 01:10:58;;;;;;;1.85;1.23;;;20.10;48.70;;;;;;6194196;28;20428;-70
2021/03/02 01:13:58;;;;;;;1.73;1.40;;;20.10;48.70;;;;;;6209146;28;20181;-70
2021/03/02 01:16:59;;;;;;;1.77;1.33;;;20.10;48.70;;;;;;6200603;28;20057;-70
2021/03/02 01:19:59;;;;;;;2.53;1.30;;;20.10;48.70;;;;;;6201463;28;20054;-70
2021/03/02 01:23:00;;;;;;;2.03;1.33;;;20.10;48.70;;;;;;6206311;28;20088;-71
2021/03/02 01:26:01;;;;;;;1.77;1.33;;;20.10;48.70;;;;;;6201068;28;20093;-69
2021/03/02 01:29:01;;;;;;;1.75;1.33;;;20.10;48.70;;;;;;6205705;28;20130;-69
2021/03/02 01:32:02;;;;;;;2.03;1.48;;;20.10;48.70;;;;;;6198185;28;20022;-69
2021/03/02 01:35:08;;;;;;;1.60;1.35;;;20.10;48.70;;;;;;6199586;28;20018;-70
2021/03/02 01:38:09;;;;;;;2.42;1.60;;;20.10;48.70;;;;;;6202902;28;20144;-70
2021/03/02 01:41:09;;;;;;;2.10;1.35;;;20.10;48.70;;;;;;6196715;28;20485;-70
2021/03/02 01:44:10;;;;;;;2.10;1.30;;;20.10;48.60;;;;;;6194813;28;20042;-70
2021/03/02 01:47:10;;;;;;;1.60;1.33;;;20.10;48.60;;;;;;6195787;28;20097;-70
2021/03/02 01:50:12;;;;;;;2.15;1.50;;;20.10;48.70;;;;;;6197393;28;20037;-70
2021/03/02 01:53:12;;;;;;;2.38;1.67;;;20.10;48.70;;;;;;6198495;28;20230;-70
2021/03/02 01:56:13;;;;;;;1.63;1.13;;;20.10;48.60;;;;;;6194882;28;20045;-70
2021/03/02 01:59:13;;;;;;;1.67;1.20;;;20.10;48.60;;;;;;6197557;28;20054;-70
2021/03/02 02:02:34;;;;;;;1.75;1.30;;;20.10;48.70;;;;;;6193535;28;20034;-70
2021/03/02 02:05:41;;;;;;;2.00;1.40;;;20.10;48.70;;;;;;6195734;28;20113;-70
2021/03/02 02:08:46;;;;;;;1.98;1.35;;;20.10;48.60;;;;;;6200978;28;20023;-70
2021/03/02 02:11:51;;;;;;;2.00;1.20;;;20.10;48.70;;;;;;6193275;28;20022;-70
2021/03/02 02:15:17;;;;;;;2.03;1.33;;;20.10;48.60;;;;;;6199768;28;20053;-70
2021/03/02 02:18:23;;;;;;;1.77;1.30;;;20.10;48.60;;;;;;6199559;28;20049;-70
2021/03/02 02:21:50;;;;;;;1.70;1.25;;;20.10;48.60;;;;;;6192955;28;20358;-70
2021/03/02 02:25:12;;;;;;;1.80;1.40;;;20.10;48.60;;;;;;6198832;28;20074;-70
2021/03/02 02:28:15;;;;;;;2.03;1.33;;;20.10;48.70;;;;;;6199362;28;20069;-70
2021/03/02 02:31:19;;;;;;;2.20;1.40;;;20.10;48.50;;;;;;6198471;28;20038;-70
2021/03/02 02:34:21;;;;;;;2.45;1.40;;;20.10;48.60;;;;;;6204520;28;20033;-70
2021/03/02 02:37:25;;;;;;;1.77;1.20;;;20.10;48.60;;;;;;6192843;28;20085;-70
2021/03/02 02:40:26;;;;;;;2.22;1.48;;;20.10;48.60;;;;;;6197327;28;20397;-70
2021/03/02 02:43:27;;;;;;;1.75;1.40;;;20.10;48.60;;;;;;6186995;28;20045;-70
2021/03/02 02:46:28;;;;;;;2.05;1.48;;;20.10;48.60;;;;;;6196613;28;20031;-70
2021/03/02 02:49:30;;;;;;;1.73;1.40;;;20.10;48.50;;;;;;6198910;28;20027;-73
2021/03/02 02:52:31;;;;;;;1.33;1.10;;;20.10;48.50;;;;;;6192602;28;20030;-71
2021/03/02 02:55:45;;;;;;;1.33;1.20;;;20.10;48.50;;;;;;6197643;28;20436;-70
2021/03/02 02:58:59;;;;;;;2.03;1.40;;;20.10;48.50;;;;;;6194275;28;20026;-70
2021/03/02 03:02:05;;;;;;;1.80;1.35;;;20.10;48.50;;;;;;6200347;28;20566;-70
2021/03/02 03:05:08;;;;;;;2.42;1.48;;;20.10;48.50;;;;;;6194440;28;20046;-70
2021/03/02 03:08:12;;;;;;;1.98;1.30;;;20.10;48.50;;;;;;6197325;28;20040;-70
2021/03/02 03:11:14;;;;;;;1.65;1.40;;;20.10;48.50;;;;;;6196528;28;20019;-70
2021/03/02 03:14:16;;;;;;;1.73;1.33;;;20.10;48.50;;;;;;6201509;28;20037;-70
2021/03/02 03:17:18;;;;;;;1.75;1.40;;;20.10;48.50;;;;;;6196441;28;20061;-70
2021/03/02 03:20:19;;;;;;;2.25;1.30;;;20.10;48.50;;;;;;6203220;28;20561;-70
2021/03/02 03:23:20;;;;;;;1.63;1.38;;;20.10;48.50;;;;;;6196743;28;20129;-70
2021/03/02 03:26:24;;;;;;;1.80;1.17;;;20.10;48.50;;;;;;6199637;28;20404;-70
2021/03/02 03:29:25;;;;;;;2.08;1.38;;;20.10;48.50;;;;;;6202166;28;20477;-70
2021/03/02 03:32:27;;;;;;;3.20;1.42;;;20.10;48.40;;;;;;6201048;28;20034;-70
2021/03/02 03:35:28;;;;;;;1.77;1.20;;;20.10;48.50;;;;;;6203478;28;20027;-70
2021/03/02 03:38:29;;;;;;;1.77;1.33;;;20.10;48.50;;;;;;6192876;28;20027;-70
2021/03/02 03:41:29;;;;;;;1.92;1.33;;;20.10;48.50;;;;;;6202643;28;20038;-70
2021/03/02 03:44:30;;;;;;;1.63;1.48;;;20.10;48.50;;;;;;6191373;28;20038;-70
2021/03/02 03:47:30;;;;;;;2.08;1.58;;;20.10;48.40;;;;;;6200364;28;20057;-70
2021/03/02 03:50:31;;;;;;;2.03;1.25;;;20.10;48.50;;;;;;6204852;28;20026;-70
2021/03/02 03:53:35;;;;;;;1.73;1.25;;;20.10;48.50;;;;;;6199970;28;20463;-70
2021/03/02 03:56:35;;;;;;;1.63;1.33;;;20.10;48.50;;;;;;6201531;28;20049;-70
2021/03/02 03:59:38;;;;;;;1.50;1.10;;;20.10;48.50;;;;;;6199119;28;20030;-70
2021/03/02 04:02:39;;;;;;;1.77;1.40;;;20.10;48.50;;;;;;6196600;28;20034;-70
2021/03/02 04:05:40;;;;;;;1.63;1.23;;;20.10;48.50;;;;;;6201431;28;20104;-70
2021/03/02 04:08:41;;;;;;;1.77;1.20;;;20.00;48.40;;;;;;6198432;28;20347;-70
2021/03/02 04:11:42;;;;;;;1.92;1.20;;;20.00;48.40;;;;;;6199283;28;20054;-70
2021/03/02 04:14:42;;;;;;;1.52;1.17;;;20.00;48.30;;;;;;6196385;28;20113;-69
2021/03/02 04:17:51;;;;;;;1.30;1.10;;;20.00;48.30;;;;;;6197656;28;20049;-70
2021/03/02 04:20:51;;;;;;;1.90;1.17;;;20.00;48.30;;;;;;6197940;28;20105;-70
2021/03/02 04:23:52;;;;;;;1.65;1.30;;;20.10;48.40;;;;;;6195283;28;20033;-70
2021/03/02 04:26:52;;;;;;;1.52;1.23;;;20.00;48.30;;;;;;6197286;28;20106;-70
2021/03/02 04:29:53;;;;;;;1.70;1.30;;;20.00;48.30;;;;;;6195109;28;20034;-70
2021/03/02 04:32:54;;;;;;;1.80;1.38;;;20.00;48.40;;;;;;6196051;28;20101;-71
2021/03/02 04:35:54;;;;;;;1.33;1.05;;;20.00;48.40;;;;;;6202605;28;20037;-71
2021/03/02 04:38:55;;;;;;;1.98;1.40;;;20.00;48.30;;;;;;6195992;28;20062;-70
2021/03/02 04:41:55;;;;;;;1.27;1.15;;;20.00;48.40;;;;;;6201754;28;20528;-70
2021/03/02 04:44:56;;;;;;;1.35;1.15;;;20.00;48.40;;;;;;6194344;28;20042;-70
2021/03/02 04:47:56;;;;;;;1.20;1.10;;;20.00;48.40;;;;;;6202760;28;20485;-70
2021/03/02 04:50:57;;;;;;;1.30;1.20;;;20.00;48.30;;;;;;6200114;28;20034;-70
2021/03/02 04:53:57;;;;;;;1.42;1.00;;;20.00;48.40;;;;;;6195178;28;20458;-70
2021/03/02 04:56:58;;;;;;;1.40;1.20;;;20.00;48.30;;;;;;6199738;28;20392;-71
2021/03/02 05:00:35;;;;;;;2.45;1.27;;;20.00;48.40;;;;;;6194512;28;20037;-70
2021/03/02 05:03:36;;;;;;;1.63;1.15;;;20.00;48.30;;;;;;6197466;28;20038;-70
2021/03/02 05:06:36;;;;;;;1.85;1.35;;;20.00;48.30;;;;;;6198311;28;20040;-70
2021/03/02 05:09:37;;;;;;;1.45;1.17;;;20.00;48.30;;;;;;6194715;28;20026;-71
2021/03/02 05:12:37;;;;;;;1.63;1.17;;;20.00;48.30;;;;;;6201819;28;20390;-70
2021/03/02 05:15:38;;;;;;;1.38;1.20;;;20.00;48.30;;;;;;6197253;28;20061;-69
2021/03/02 05:18:39;;;;;;;1.52;1.30;;;20.00;48.30;;;;;;6197463;28;20022;-70
2021/03/02 05:21:39;;;;;;;1.55;1.27;;;20.00;48.20;;;;;;6196534;28;20035;-70
2021/03/02 05:24:40;;;;;;;1.40;1.30;;;20.00;48.30;;;;;;6194194;28;20141;-70
2021/03/02 05:27:41;;;;;;;1.70;1.33;;;20.00;48.30;;;;;;6195779;28;20117;-71
2021/03/02 05:30:41;;;;;;;1.48;1.38;;;20.00;48.20;;;;;;6198230;28;20130;-70
2021/03/02 05:33:42;;;;;;;2.00;1.52;;;20.00;48.30;;;;;;6203060;28;20105;-70
2021/03/02 05:36:42;;;;;;;1.40;1.30;;;20.00;48.20;;;;;;6196747;28;20097;-70
2021/03/02 05:39:43;;;;;;;1.27;1.15;;;20.00;48.30;;;;;;6191767;28;20477;-70
2021/03/02 05:42:44;;;;;;;1.80;1.42;;;20.00;48.30;;;;;;6194211;28;20035;-71
2021/03/02 05:45:44;;;;;;;1.75;1.27;;;20.00;48.30;;;;;;6193554;28;20081;-70
2021/03/02 05:48:45;;;;;;;2.25;1.60;;;20.00;48.20;;;;;;6201220;28;20030;-71
2021/03/02 05:51:46;;;;;;;2.25;1.55;;;20.00;48.20;;;;;;6198372;28;20076;-70
2021/03/02 05:54:46;;;;;;;1.77;1.40;;;20.00;48.20;;;;;;6195470;28;20054;-70
2021/03/02 05:57:48;;;;;;;1.63;1.35;;;20.00;48.10;;;;;;6199746;28;20072;-71
2021/03/02 06:00:49;;;;;;;1.90;1.38;;;20.10;48.30;;;;;;6193393;28;20053;-71
2021/03/02 06:03:49;;;;;;;4.88;1.60;;;20.00;48.20;;;;;;6199178;28;20046;-70
2021/03/02 06:06:56;;;;;;;3.22;1.80;;;20.00;48.00;;;;;;6197006;28;20025;-70
2021/03/02 06:09:57;;;;;;;2.58;1.48;;;20.00;48.00;;;;;;6192561;28;20109;-70
2021/03/02 06:12:58;;;;;;;5.03;1.65;;;20.00;48.00;;;;;;6195061;28;20019;-70
2021/03/02 06:15:59;;;;;;;3.53;2.33;;;20.00;48.20;;;;;;6189094;28;20275;-71
2021/03/02 06:18:59;;;;;;;2.90;2.05;;;19.90;47.30;;;;;;6199225;28;20038;-70
2021/03/02 06:22:00;;;;;;;5.05;2.80;;;19.90;47.30;;;;;;6194769;28;20024;-70
2021/03/02 06:25:04;;;;;;;8.48;3.92;;;19.90;46.80;;;;;;6199911;28;20395;-70
2021/03/02 06:28:05;;;;;;;5.63;3.13;;;19.90;45.30;;;;;;6201513;28;20092;-70
2021/03/02 06:31:07;;;;;;;7.43;4.72;;;19.80;44.30;;;;;;6192362;28;20023;-70
2021/03/02 06:34:10;;;;;;;7.32;4.40;;;19.90;43.40;;;;;;6197466;28;20114;-71
2021/03/02 06:37:11;;;;;;;8.73;4.38;;;19.90;42.90;;;;;;6205561;28;20113;-70
2021/03/02 06:40:13;;;;;;;6.38;3.65;;;19.90;43.30;;;;;;6202342;28;20109;-70
2021/03/02 06:43:39;;;;;;;8.00;4.10;;;19.90;43.70;;;;;;6201178;28;20381;-71
2021/03/02 06:46:40;;;;;;;7.80;4.00;;;19.90;44.00;;;;;;6198008;28;20030;-70
2021/03/02 06:49:45;;;;;;;7.30;4.35;;;20.00;44.50;;;;;;6204085;28;20030;-71
2021/03/02 06:52:45;;;;;;;6.10;3.60;;;20.00;44.80;;;;;;6201702;28;20018;-71
2021/03/02 06:55:46;;;;;;;7.07;3.67;;;20.00;45.00;;;;;;6199140;28;20077;-70
2021/03/02 06:59:10;;;;;;;7.78;3.60;;;20.00;45.10;;;;;;6199182;28;20026;-70
2021/03/02 07:02:10;;;;;;;5.20;3.28;;;20.00;45.40;;;;;;6192354;28;20038;-70
2021/03/02 07:05:18;;;;;;;5.72;3.85;;;20.00;45.50;;;;;;6199921;28;20034;-70
2021/03/02 07:08:18;;;;;;;7.05;3.55;;;20.00;45.60;;;;;;6199057;28;20026;-70
2021/03/02 07:11:19;;;;;;;6.93;3.38;;;20.00;45.70;;;;;;6198423;28;20034;-71
2021/03/02 07:14:20;;;;;;;8.05;3.83;;;20.00;45.60;;;;;;6205493;28;20093;-71
2021/03/02 07:17:21;;;;;;;4.88;3.30;;;20.00;45.90;;;;;;6199060;28;20153;-70
2021/03/02 07:20:23;;;;;;;5.60;3.50;;;20.00;45.80;;;;;;6205387;28;20036;-70
2021/03/02 07:23:24;;;;;;;5.55;3.47;;;20.00;46.00;;;;;;6199493;28;20026;-71
2021/03/02 07:26:26;;;;;;;6.10;3.72;;;20.00;46.10;;;;;;6202000;28;20028;-70
2021/03/02 07:29:27;;;;;;;5.78;3.67;;;20.00;46.20;;;;;;6203558;28;20037;-71
2021/03/02 07:32:29;;;;;;;5.40;3.25;;;20.00;46.30;;;;;;6197985;28;20109;-71
2021/03/02 07:35:30;;;;;;;4.95;3.45;;;20.00;46.30;;;;;;6202464;28;20026;-70
2021/03/02 07:38:30;;;;;;;6.15;3.65;;;20.10;46.50;;;;;;6190638;28;20030;-71
2021/03/02 07:41:34;;;;;;;5.57;3.50;;;20.00;46.40;;;;;;6202217;28;20026;-70
2021/03/02 07:45:07;;;;;;;6.55;4.03;;;20.00;46.50;;;;;;6190126;28;20327;-70
2021/03/02 07:48:29;;;;;;;5.90;3.38;;;20.00;46.60;;;;;;6193434;28;20035;-70
2021/03/02 07:51:30;;;;;;;5.78;3.10;;;20.00;46.60;;;;;;6200174;28;20062;-70
2021/03/02 07:54:33;;;;;;;5.78;3.78;;;20.00;46.70;;;;;;6199698;28;20052;-70
2021/03/02 07:57:34;;;;;;;4.68;3.10;;;20.00;46.80;;;;;;6202797;28;20045;-70
2021/03/02 08:00:35;;;;;;;6.63;3.35;;;20.00;46.80;;;;;;6198365;28;20030;-70
2021/03/02 08:03:35;;;;;;;5.15;3.45;;;20.10;47.00;;;;;;6194775;28;20034;-70
2021/03/02 08:06:36;;;;;;;6.88;3.85;;;20.10;46.90;;;;;;6197877;28;20099;-70
2021/03/02 08:09:36;;;;;;;5.88;3.38;;;20.10;47.00;;;;;;6192549;28;20030;-70
2021/03/02 08:12:37;;;;;;;8.77;3.72;;;20.10;47.00;;;;;;6194219;28;20026;-70
2021/03/02 08:15:39;;;;;;;5.85;3.13;;;20.10;47.00;;;;;;6206038;28;20080;-70
2021/03/02 08:18:41;;;;;;;7.03;3.53;;;20.10;47.00;;;;;;6196825;28;20105;-70
2021/03/02 08:21:41;;;;;;;7.57;3.65;;;20.10;47.10;;;;;;6203105;28;20037;-70
2021/03/02 08:24:48;;;;;;;6.45;3.50;;;20.10;47.20;;;;;;6195500;28;20369;-70
2021/03/02 08:27:58;;;;;;;7.75;3.17;;;20.10;47.20;;;;;;6198373;28;20062;-71
2021/03/02 08:31:10;;;;;;;5.25;3.25;;;20.10;47.20;;;;;;6202978;28;20038;-70
2021/03/02 08:34:16;;;;;;;9.80;3.55;;;20.10;47.30;;;;;;6195569;28;20061;-70
2021/03/02 08:37:17;;;;;;;4.95;3.50;;;20.10;47.30;;;;;;6201117;28;20393;-70
2021/03/02 08:40:23;;;;;;;5.85;3.35;;;20.10;47.30;;;;;;6200071;28;20033;-70
2021/03/02 08:43:25;;;;;;;5.82;3.55;;;20.10;47.30;;;;;;6196435;28;20568;-70
2021/03/02 08:46:28;;;;;;;6.18;3.50;;;20.10;47.40;;;;;;6202076;28;20106;-70
2021/03/02 08:49:28;;;;;;;5.25;3.40;;;20.10;47.50;;;;;;6196265;28;20014;-70
2021/03/02 08:52:42;;;;;;;5.22;3.25;;;20.10;47.40;;;;;;6198361;28;20097;-71
2021/03/02 08:55:43;;;;;;;7.55;3.67;;;20.10;47.50;;;;;;6203587;28;20037;-70
2021/03/02 08:58:45;;;;;;;7.22;3.40;;;20.10;47.50;;;;;;6198208;28;20555;-70
2021/03/02 09:01:45;;;;;;;5.97;3.33;;;20.10;47.50;;;;;;6204031;28;20026;-70
2021/03/02 09:04:46;;;;;;;6.03;3.85;;;20.10;47.50;;;;;;6203490;28;20028;-70
2021/03/02 09:08:07;;;;;;;6.63;4.03;;;20.10;47.50;;;;;;6202866;28;20065;-70
2021/03/02 09:11:07;;;;;;;5.88;3.50;;;20.10;47.40;;;;;;6201463;28;20026;-70
2021/03/02 09:14:26;;;;;;;5.18;3.55;;;20.10;47.50;;;;;;6192248;28;20088;-70
2021/03/02 09:17:26;;;;;;;6.25;3.92;;;20.10;47.40;;;;;;6200728;28;20043;-70
2021/03/02 09:20:27;;;;;;;8.52;3.65;;;20.10;47.40;;;;;;6199596;28;20499;-70
2021/03/02 09:23:27;;;;;;;7.75;4.20;;;20.10;47.40;;;;;;6199611;28;20125;-70
2021/03/02 09:26:29;;;;;;;5.78;3.88;;;20.10;47.50;;;;;;6199404;28;20052;-70
2021/03/02 09:29:33;;;;;;;6.07;3.83;;;20.10;47.50;;;;;;6195391;28;20034;-70
2021/03/02 09:32:35;;;;;;;6.22;3.78;;;20.10;47.50;;;;;;6198473;28;20015;-70
2021/03/02 09:35:35;;;;;;;6.80;4.00;;;20.10;48.20;;;;;;6196087;28;20026;-70
2021/03/02 09:38:36;;;;;;;5.60;3.58;;;20.10;47.40;;;;;;6197965;28;20033;-70
2021/03/02 09:41:38;;;;;;;5.28;3.80;;;20.10;47.50;;;;;;6197073;28;20038;-70
2021/03/02 09:44:47;;;;;;;6.72;3.53;;;20.10;47.50;;;;;;6195545;28;20026;-70
2021/03/02 09:47:56;;;;;;;7.13;3.75;;;20.10;47.50;;;;;;6196555;28;20053;-70
2021/03/02 09:50:57;;;;;;;6.75;3.97;;;20.10;47.50;;;;;;6195512;28;20022;-70
2021/03/02 09:54:15;;;;;;;6.40;3.70;;;20.10;47.50;;;;;;6196958;28;20471;-70
2021/03/02 09:57:16;;;;;;;6.13;4.25;;;20.10;47.50;;;;;;6201706;28;20062;-70
2021/03/02 10:00:25;;;;;;;6.05;3.67;;;20.10;47.50;;;;;;6194984;28;20477;-70
2021/03/02 10:03:33;;;;;;;7.18;4.57;;;20.10;47.50;;;;;;6196403;28;20566;-70
2021/03/02 10:06:34;;;;;;;11.52;3.83;;;20.10;47.50;;;;;;6198426;28;20435;-70
2021/03/02 10:09:34;;;;;;;6.90;3.67;;;20.10;47.50;;;;;;6199420;28;20026;-70
2021/03/02 10:12:35;;;;;;;5.25;3.50;;;20.10;47.50;;;;;;6199541;28;20392;-70
2021/03/02 10:15:36;;;;;;;6.07;4.15;;;20.10;47.50;;;;;;6195407;28;20054;-71
2021/03/02 10:18:52;;;;;;;6.32;4.07;;;20.10;47.60;;;;;;6198861;28;20026;-70
2021/03/02 10:21:57;;;;;;;5.97;3.65;;;20.10;47.60;;;;;;6192377;28;20060;-70
2021/03/02 10:24:58;;;;;;;6.55;3.63;;;20.10;47.60;;;;;;6200724;28;20030;-70
2021/03/02 10:27:59;;;;;;;5.38;3.70;;;20.10;47.60;;;;;;6188329;28;20126;-70
2021/03/02 10:31:00;;;;;;;5.40;3.53;;;20.10;47.70;;;;;;6183469;28;20049;-70
2021/03/02 10:34:06;;;;;;;4.80;3.35;;;20.10;47.70;;;;;;6196777;28;20026;-69
2021/03/02 10:37:08;;;;;;;5.85;4.13;;;20.10;47.70;;;;;;6194991;28;20105;-70
2021/03/02 10:40:09;;;;;;;6.15;3.63;;;20.10;47.70;;;;;;6200918;28;20026;-70
2021/03/02 10:43:10;;;;;;;5.50;3.05;;;20.10;47.70;;;;;;6201785;28;20045;-70
2021/03/02 10:46:10;;;;;;;4.93;3.03;;;20.10;47.70;;;;;;6194869;28;20047;-70
2021/03/02 10:49:11;;;;;;;6.55;3.88;;;20.10;47.80;;;;;;6199508;28;20053;-70
2021/03/02 10:52:11;;;;;;;5.82;3.40;;;20.10;47.70;;;;;;6194032;28;20530;-70
2021/03/02 10:55:12;;;;;;;5.80;3.75;;;20.10;47.70;;;;;;6200563;28;20496;-70
2021/03/02 10:58:13;;;;;;;5.28;3.83;;;20.10;47.80;;;;;;6201257;28;20084;-70
2021/03/02 11:01:14;;;;;;;6.28;3.38;;;20.10;47.80;;;;;;6194082;28;20022;-70
2021/03/02 11:04:15;;;;;;;6.18;3.67;;;20.10;47.80;;;;;;6198325;28;20026;-70
2021/03/02 11:07:16;;;;;;;4.97;3.70;;;20.10;47.80;;;;;;6194227;28;20061;-70
2021/03/02 11:10:16;;;;;;;5.45;3.70;;;20.10;47.80;;;;;;6197873;28;20035;-70
2021/03/02 11:13:17;;;;;;;6.15;3.60;;;20.10;47.80;;;;;;6196980;28;20044;-71
2021/03/02 11:16:18;;;;;;;5.45;3.78;;;20.10;47.80;;;;;;6197559;28;20060;-70
2021/03/02 11:19:18;;;;;;;6.07;3.63;;;20.10;47.80;;;;;;6196586;28;20026;-70
2021/03/02 11:22:19;;;;;;;6.07;3.63;;;20.10;47.80;;;;;;6198303;28;20049;-70
2021/03/02 11:25:19;;;;;;;5.50;3.47;;;20.10;47.80;;;;;;6195192;28;20041;-70
2021/03/02 11:28:20;;;;;;;5.15;3.38;;;20.10;47.90;;;;;;6202528;28;20022;-70
2021/03/02 11:31:20;;;;;;;4.57;3.20;;;20.10;48.60;;;;;;6200691;28;20043;-69
2021/03/02 11:34:22;;;;;;;4.65;3.35;;;20.20;47.90;;;;;;6195206;28;20049;-70
2021/03/02 11:37:22;;;;;;;4.70;3.40;;;20.10;47.90;;;;;;6185953;28;20023;-71
2021/03/02 11:40:23;;;;;;;4.60;3.22;;;20.10;47.80;;;;;;6193699;28;20034;-70
2021/03/02 11:43:24;;;;;;;4.75;3.47;;;20.10;47.90;;;;;;6192271;28;20405;-70
2021/03/02 11:46:24;;;;;;;6.10;3.72;;;20.20;48.00;;;;;;6184175;28;20015;-70
2021/03/02 11:49:25;;;;;;;4.70;3.50;;;20.10;47.90;;;;;;6192813;28;20406;-70
2021/03/02 11:52:26;;;;;;;4.90;3.20;;;20.20;48.00;;;;;;6189688;28;20018;-70
2021/03/02 11:55:26;;;;;;;4.90;3.42;;;20.20;48.00;;;;;;6191415;28;20098;-70
2021/03/02 11:58:29;;;;;;;5.22;3.20;;;20.20;48.00;;;;;;6191981;28;20026;-70
2021/03/02 12:01:29;;;;;;;6.43;3.33;;;20.20;48.00;;;;;;6179024;28;20062;-70
2021/03/02 12:04:30;;;;;;;5.13;3.53;;;20.20;48.00;;;;;;6198493;28;20493;-70
2021/03/02 12:07:30;;;;;;;4.43;3.45;;;20.20;48.00;;;;;;6194965;28;20034;-70
2021/03/02 12:10:31;;;;;;;4.38;3.25;;;20.20;48.00;;;;;;6221327;28;20018;-70
2021/03/02 12:13:31;;;;;;;5.05;3.42;;;20.20;48.00;;;;;;6221631;28;20026;-70
2021/03/02 12:16:32;;;;;;;4.47;3.22;;;20.20;48.10;;;;;;6207052;28;20050;-70
2021/03/02 12:19:33;;;;;;;5.93;3.83;;;20.20;48.00;;;;;;6195118;28;20038;-70
2021/03/02 12:22:34;;;;;;;5.40;3.33;;;20.20;48.00;;;;;;6185176;28;20023;-71
2021/03/02 12:25:35;;;;;;;4.90;3.30;;;20.20;48.10;;;;;;6197014;28;20038;-70
2021/03/02 12:28:35;;;;;;;4.65;3.40;;;20.20;48.10;;;;;;6184507;28;20437;-71
2021/03/02 12:31:36;;;;;;;6.75;3.47;;;20.20;48.00;;;;;;6177355;28;20062;-70
2021/03/02 12:34:37;;;;;;;4.60;3.45;;;20.20;48.00;;;;;;6189185;28;20026;-70
2021/03/02 12:37:38;;;;;;;4.68;3.55;;;20.20;48.10;;;;;;6196321;28;20022;-70
2021/03/02 12:40:39;;;;;;;5.28;3.25;;;20.20;48.10;;;;;;6196548;28;20493;-71
2021/03/02 12:43:39;;;;;;;5.28;3.38;;;20.20;48.10;;;;;;6189708;28;20037;-70
2021/03/02 12:46:40;;;;;;;5.03;3.28;;;20.20;48.10;;;;;;6183013;28;20062;-72
2021/03/02 12:49:40;;;;;;;4.25;2.97;;;20.20;48.10;;;;;;6185973;28;20027;-70
2021/03/02 12:52:41;;;;;;;4.18;2.95;;;20.20;48.10;;;;;;6195737;28;20050;-70
2021/03/02 12:55:42;;;;;;;4.28;3.00;;;20.20;48.10;;;;;;6194343;28;20060;-70
2021/03/02 12:58:42;;;;;;;4.32;2.90;;;20.20;48.20;;;;;;6185020;28;20356;-70
2021/03/02 13:01:44;;;;;;;4.22;3.20;;;20.20;48.20;;;;;;6194435;28;20058;-70
2021/03/02 13:04:45;;;;;;;4.78;3.05;;;20.20;48.20;;;;;;6175888;28;20041;-69
2021/03/02 13:07:47;;;;;;;4.57;3.03;;;20.20;48.20;;;;;;6194282;28;20026;-70
2021/03/02 13:10:47;;;;;;;4.60;3.00;;;20.20;48.20;;;;;;6191260;28;20655;-70
2021/03/02 13:13:48;;;;;;;6.95;3.13;;;20.20;48.20;;;;;;6154507;28;20030;-70
2021/03/02 13:16:50;;;;;;;6.05;3.42;;;20.20;48.20;;;;;;6194947;28;20487;-70
2021/03/02 13:19:51;;;;;;;3.92;2.92;;;20.20;48.20;;;;;;6193845;28;20034;-70
2021/03/02 13:22:52;;;;;;;3.80;2.90;;;20.20;48.20;;;;;;6195821;28;20050;-70
2021/03/02 13:25:55;;;;;;;4.80;2.65;;;20.20;48.20;;;;;;6194810;28;20034;-70
2021/03/02 13:28:58;;;;;;;4.53;3.03;;;20.20;48.20;;;;;;6192171;28;20034;-70
2021/03/02 13:32:02;;;;;;;5.15;3.15;;;20.20;48.20;;;;;;6190240;28;20030;-70
2021/03/02 13:35:05;;;;;;;4.50;3.08;;;20.20;48.30;;;;;;6177232;28;20038;-69
2021/03/02 13:38:06;;;;;;;4.22;2.88;;;20.20;48.20;;;;;;6174027;28;20094;-70
2021/03/02 13:41:08;;;;;;;4.07;2.70;;;20.20;48.30;;;;;;6182962;28;20034;-70
2021/03/02 13:44:09;;;;;;;4.25;3.03;;;20.20;48.30;;;;;;6183075;28;20117;-69
2021/03/02 13:47:10;;;;;;;4.60;2.95;;;20.20;48.30;;;;;;6194854;28;20478;-69
2021/03/02 13:50:13;;;;;;;5.35;3.08;;;20.20;48.40;;;;;;6194742;28;20026;-69
2021/03/02 13:53:14;;;;;;;5.00;3.40;;;20.20;48.30;;;;;;6195039;28;20022;-70
2021/03/02 13:56:15;;;;;;;4.53;3.00;;;20.20;48.30;;;;;;6190569;28;20148;-70
2021/03/02 13:59:16;;;;;;;3.78;2.60;;;20.20;48.30;;;;;;6194475;28;20022;-69
2021/03/02 14:02:20;;;;;;;6.28;3.28;;;20.20;48.30;;;;;;6194758;28;20113;-70
2021/03/02 14:05:24;;;;;;;3.75;3.03;;;20.20;48.30;;;;;;6191758;28;20575;-70
2021/03/02 14:08:25;;;;;;;6.15;2.72;;;20.20;48.30;;;;;;6193281;28;20552;-70
2021/03/02 14:11:25;;;;;;;5.28;3.13;;;20.20;48.30;;;;;;6194140;28;20030;-70
2021/03/02 14:14:28;;;;;;;5.50;3.33;;;20.20;48.30;;;;;;6194666;28;20030;-69
2021/03/02 14:17:33;;;;;;;3.90;2.83;;;20.20;48.30;;;;;;6193702;28;20109;-69
2021/03/02 14:20:34;;;;;;;5.88;3.42;;;20.20;48.30;;;;;;6193403;28;20041;-69
2021/03/02 14:23:35;;;;;;;4.05;2.95;;;20.20;48.40;;;;;;6194579;28;20070;-70
2021/03/02 14:26:36;;;;;;;4.32;3.33;;;20.20;48.30;;;;;;6193960;28;20037;-70
2021/03/02 14:29:37;;;;;;;4.68;3.30;;;20.20;48.40;;;;;;6194975;28;20034;-70
2021/03/02 14:32:37;;;;;;;4.65;3.50;;;20.20;48.40;;;;;;6193920;28;20046;-70
2021/03/02 14:35:38;;;;;;;6.18;4.38;;;20.20;48.40;;;;;;6188208;28;20429;-70
2021/03/02 14:38:38;;;;;;;6.18;4.40;;;20.20;48.40;;;;;;6180204;28;20027;-70
2021/03/02 14:41:41;;;;;;;7.28;4.95;;;20.20;48.40;;;;;;6168666;28;20275;-69
2021/03/02 14:44:46;;;;;;;8.43;4.82;;;20.20;48.40;;;;;;6172278;28;20106;-70
2021/03/02 14:47:52;;;;;;;9.05;5.28;;;20.20;48.40;;;;;;6182583;28;20376;-70
2021/03/02 14:50:53;;;;;;;8.70;5.95;;;20.20;48.40;;;;;;6172906;28;20077;-70
2021/03/02 14:53:56;;;;;;;8.73;5.85;;;20.20;48.40;;;;;;6194585;28;20018;-70
2021/03/02 14:56:57;;;;;;;8.77;6.53;;;20.20;48.40;;;;;;6198281;28;20031;-70
2021/03/02 15:00:00;;;;;;;10.38;7.05;;;20.20;48.40;;;;;;6197596;28;20030;-70
2021/03/02 15:03:01;;;;;;;11.13;7.53;;;20.20;48.40;;;;;;6197993;28;20392;-70
2021/03/02 15:06:02;;;;;;;11.98;7.75;;;20.20;48.40;;;;;;6198662;28;20059;-70
2021/03/02 15:09:03;;;;;;;10.85;7.65;;;20.20;48.50;;;;;;6197301;28;20117;-70
2021/03/02 15:12:07;;;;;;;11.23;7.95;;;20.20;48.40;;;;;;6193641;28;20057;-70
2021/03/02 15:15:09;;;;;;;10.98;7.57;;;20.20;48.50;;;;;;6198843;28;20037;-69
2021/03/02 15:18:12;;;;;;;13.15;9.07;;;20.20;48.50;;;;;;6193651;28;20041;-70
2021/03/02 15:21:13;;;;;;;13.38;8.82;;;20.20;48.50;;;;;;6198071;28;20026;-70
2021/03/02 15:24:18;;;;;;;12.98;8.93;;;20.20;48.50;;;;;;6196994;28;20035;-69
2021/03/02 15:27:21;;;;;;;15.15;10.30;;;20.20;48.50;;;;;;6188376;28;20033;-69
2021/03/02 15:30:23;;;;;;;13.88;9.57;;;20.20;48.50;;;;;;6197894;28;20189;-70
2021/03/02 15:33:24;;;;;;;15.35;10.02;;;20.20;48.50;;;;;;6198106;28;20073;-69
2021/03/02 15:36:26;;;;;;;17.23;10.10;;;20.20;48.50;;;;;;6211478;28;20065;-70
2021/03/02 15:39:27;;;;;;;13.63;9.50;;;20.20;48.50;;;;;;6197982;28;20018;-70
2021/03/02 15:42:28;;;;;;;16.08;10.80;;;20.20;48.60;;;;;;6211975;28;20069;-70
2021/03/02 15:45:29;;;;;;;15.05;10.25;;;20.20;48.50;;;;;;6177676;28;20030;-69
2021/03/02 15:48:30;;;;;;;13.30;9.80;;;20.20;48.50;;;;;;6190095;28;20029;-70